KABI/ABI METAR and TAF weather

Enter ICAO airport designator
Station Type Date Time Source
KABI METAR 2019/08/23 18:27 UTC NOAA

KABI 231827Z VRB04KT 10SM TS FEW065 33/18 A2994 RMK AO2 TSB21 T03330178


Station Type Date Time Source
KABI Decoded METAR 2019/08/23 18:27 UTC NOAA

Station name not available
Aug 23, 2019 - 02:27 PM EDT / 2019.08.23 1827 UTC
Wind: Variable at 5 MPH (4 KT):0
Visibility: 10 mile(s):0
Sky conditions: mostly clear
Weather: thunder
Temperature: 91.9 F (33.3 C)
Dew Point: 64.0 F (17.8 C)
Relative Humidity: 39%
Pressure (altimeter): 29.94 in. Hg (1013 hPa)
ob: KABI 231827Z VRB04KT 10SM TS FEW065 33/18 A2994 RMK AO2 TSB21 T03330178
cycle: 18

Station Type Date Time Source
KABI TAF 2019/08/23 18:48 UTC NOAA

TAF KABI 231746Z 2318/2418 18010KT P6SM FEW050
FM231900 13011KT P6SM VCTS BKN060CB
FM240200 15006KT P6SM BKN250

Example: see airport list